sensor_id;sensor_type;location;lat;lon;timestamp;P1;durP1;ratioP1;P2;durP2;ratioP2
17363;SDS011;8799;43.594;13.526;2023-02-25T00:01:31;15.70;;;7.43;;
17363;SDS011;8799;43.594;13.526;2023-02-25T00:03:59;12.00;;;6.43;;
17363;SDS011;8799;43.594;13.526;2023-02-25T00:06:29;14.10;;;7.17;;
17363;SDS011;8799;43.594;13.526;2023-02-25T00:08:57;12.90;;;6.97;;
17363;SDS011;8799;43.594;13.526;2023-02-25T00:11:25;13.40;;;6.97;;
17363;SDS011;8799;43.594;13.526;2023-02-25T00:13:55;13.80;;;7.00;;
17363;SDS011;8799;43.594;13.526;2023-02-25T00:16:23;10.53;;;6.63;;
17363;SDS011;8799;43.594;13.526;2023-02-25T00:18:52;11.73;;;7.53;;
17363;SDS011;8799;43.594;13.526;2023-02-25T00:21:21;13.20;;;7.17;;
17363;SDS011;8799;43.594;13.526;2023-02-25T00:23:49;12.30;;;7.60;;
17363;SDS011;8799;43.594;13.526;2023-02-25T00:26:17;12.43;;;6.43;;
17363;SDS011;8799;43.594;13.526;2023-02-25T00:28:46;12.07;;;7.10;;
17363;SDS011;8799;43.594;13.526;2023-02-25T00:31:17;12.80;;;6.97;;
17363;SDS011;8799;43.594;13.526;2023-02-25T00:33:46;11.37;;;6.80;;
17363;SDS011;8799;43.594;13.526;2023-02-25T00:36:15;13.27;;;7.63;;
17363;SDS011;8799;43.594;13.526;2023-02-25T00:38:45;11.40;;;6.93;;
17363;SDS011;8799;43.594;13.526;2023-02-25T00:41:13;11.40;;;6.80;;
17363;SDS011;8799;43.594;13.526;2023-02-25T00:43:46;10.90;;;6.63;;
17363;SDS011;8799;43.594;13.526;2023-02-25T00:46:21;10.97;;;7.13;;
17363;SDS011;8799;43.594;13.526;2023-02-25T00:48:50;10.53;;;6.30;;
17363;SDS011;8799;43.594;13.526;2023-02-25T00:51:19;13.37;;;6.83;;
17363;SDS011;8799;43.594;13.526;2023-02-25T00:53:49;13.33;;;7.77;;
17363;SDS011;8799;43.594;13.526;2023-02-25T00:56:17;10.20;;;6.90;;
17363;SDS011;8799;43.594;13.526;2023-02-25T00:58:49;12.17;;;7.30;;
17363;SDS011;8799;43.594;13.526;2023-02-25T01:01:19;17.17;;;6.83;;
17363;SDS011;8799;43.594;13.526;2023-02-25T01:03:50;12.90;;;7.60;;
17363;SDS011;8799;43.594;13.526;2023-02-25T01:06:19;10.90;;;7.17;;
17363;SDS011;8799;43.594;13.526;2023-02-25T01:08:47;12.17;;;6.90;;
17363;SDS011;8799;43.594;13.526;2023-02-25T01:11:17;12.90;;;7.10;;
17363;SDS011;8799;43.594;13.526;2023-02-25T01:13:48;11.73;;;8.03;;
17363;SDS011;8799;43.594;13.526;2023-02-25T01:16:17;12.13;;;7.07;;
17363;SDS011;8799;43.594;13.526;2023-02-25T01:18:54;11.60;;;7.50;;
17363;SDS011;8799;43.594;13.526;2023-02-25T01:21:24;9.70;;;6.77;;
17363;SDS011;8799;43.594;13.526;2023-02-25T01:23:55;15.53;;;6.67;;
17363;SDS011;8799;43.594;13.526;2023-02-25T01:26:23;13.77;;;7.37;;
17363;SDS011;8799;43.594;13.526;2023-02-25T01:28:52;11.73;;;7.43;;
17363;SDS011;8799;43.594;13.526;2023-02-25T01:31:20;11.90;;;6.67;;
17363;SDS011;8799;43.594;13.526;2023-02-25T01:33:55;12.73;;;7.23;;
17363;SDS011;8799;43.594;13.526;2023-02-25T01:36:23;12.47;;;7.27;;
17363;SDS011;8799;43.594;13.526;2023-02-25T01:38:50;10.67;;;6.83;;
17363;SDS011;8799;43.594;13.526;2023-02-25T01:41:18;11.57;;;7.03;;
17363;SDS011;8799;43.594;13.526;2023-02-25T01:44:01;11.97;;;7.10;;
17363;SDS011;8799;43.594;13.526;2023-02-25T01:46:33;15.77;;;7.80;;
17363;SDS011;8799;43.594;13.526;2023-02-25T01:49:04;10.97;;;6.60;;
17363;SDS011;8799;43.594;13.526;2023-02-25T01:51:35;12.97;;;7.47;;
17363;SDS011;8799;43.594;13.526;2023-02-25T01:54:03;11.83;;;6.90;;
17363;SDS011;8799;43.594;13.526;2023-02-25T01:56:34;12.17;;;7.57;;
17363;SDS011;8799;43.594;13.526;2023-02-25T01:59:04;14.43;;;7.73;;
17363;SDS011;8799;43.594;13.526;2023-02-25T02:01:33;11.27;;;7.10;;
17363;SDS011;8799;43.594;13.526;2023-02-25T02:04:07;12.33;;;7.33;;
17363;SDS011;8799;43.594;13.526;2023-02-25T02:06:37;13.83;;;7.43;;
17363;SDS011;8799;43.594;13.526;2023-02-25T02:09:07;17.87;;;6.60;;
17363;SDS011;8799;43.594;13.526;2023-02-25T02:11:38;12.10;;;7.43;;
17363;SDS011;8799;43.594;13.526;2023-02-25T02:14:07;13.97;;;7.30;;
17363;SDS011;8799;43.594;13.526;2023-02-25T02:19:47;11.07;;;6.33;;
17363;SDS011;8799;43.594;13.526;2023-02-25T02:22:33;10.73;;;6.90;;
17363;SDS011;8799;43.594;13.526;2023-02-25T02:25:18;10.20;;;6.33;;
17363;SDS011;8799;43.594;13.526;2023-02-25T02:28:21;11.90;;;7.17;;
17363;SDS011;8799;43.594;13.526;2023-02-25T02:31:14;12.37;;;7.03;;
17363;SDS011;8799;43.594;13.526;2023-02-25T02:33:49;11.67;;;7.50;;
17363;SDS011;8799;43.594;13.526;2023-02-25T02:36:25;9.80;;;6.73;;
17363;SDS011;8799;43.594;13.526;2023-02-25T02:39:02;10.83;;;6.97;;
17363;SDS011;8799;43.594;13.526;2023-02-25T02:41:39;12.53;;;6.70;;
17363;SDS011;8799;43.594;13.526;2023-02-25T02:44:14;12.77;;;7.27;;
17363;SDS011;8799;43.594;13.526;2023-02-25T02:46:49;12.33;;;7.60;;
17363;SDS011;8799;43.594;13.526;2023-02-25T02:49:23;11.50;;;6.07;;
17363;SDS011;8799;43.594;13.526;2023-02-25T02:51:57;10.07;;;6.27;;
17363;SDS011;8799;43.594;13.526;2023-02-25T02:54:30;11.67;;;7.33;;
17363;SDS011;8799;43.594;13.526;2023-02-25T02:57:01;12.27;;;7.00;;
17363;SDS011;8799;43.594;13.526;2023-02-25T02:59:32;11.90;;;6.87;;
17363;SDS011;8799;43.594;13.526;2023-02-25T03:02:09;10.20;;;6.57;;
17363;SDS011;8799;43.594;13.526;2023-02-25T03:04:42;10.83;;;6.53;;
17363;SDS011;8799;43.594;13.526;2023-02-25T03:07:12;11.30;;;6.73;;
17363;SDS011;8799;43.594;13.526;2023-02-25T03:09:42;11.60;;;6.60;;
17363;SDS011;8799;43.594;13.526;2023-02-25T03:12:13;10.17;;;6.80;;
17363;SDS011;8799;43.594;13.526;2023-02-25T03:14:41;10.97;;;6.80;;
17363;SDS011;8799;43.594;13.526;2023-02-25T03:17:12;10.93;;;7.10;;
17363;SDS011;8799;43.594;13.526;2023-02-25T03:19:46;12.53;;;7.17;;
17363;SDS011;8799;43.594;13.526;2023-02-25T03:22:18;11.13;;;6.93;;
17363;SDS011;8799;43.594;13.526;2023-02-25T03:24:53;10.40;;;6.60;;
17363;SDS011;8799;43.594;13.526;2023-02-25T03:27:25;11.03;;;6.47;;
17363;SDS011;8799;43.594;13.526;2023-02-25T03:29:55;9.93;;;6.90;;
17363;SDS011;8799;43.594;13.526;2023-02-25T03:32:30;9.07;;;6.13;;
17363;SDS011;8799;43.594;13.526;2023-02-25T03:35:00;12.10;;;6.73;;
17363;SDS011;8799;43.594;13.526;2023-02-25T03:37:30;12.60;;;7.23;;
17363;SDS011;8799;43.594;13.526;2023-02-25T03:40:00;13.23;;;7.20;;
17363;SDS011;8799;43.594;13.526;2023-02-25T03:42:34;12.57;;;6.67;;
17363;SDS011;8799;43.594;13.526;2023-02-25T03:45:06;10.17;;;6.90;;
17363;SDS011;8799;43.594;13.526;2023-02-25T03:47:39;12.90;;;6.73;;
17363;SDS011;8799;43.594;13.526;2023-02-25T03:50:09;10.50;;;6.57;;
17363;SDS011;8799;43.594;13.526;2023-02-25T03:52:40;8.90;;;6.27;;
17363;SDS011;8799;43.594;13.526;2023-02-25T03:55:08;11.63;;;6.60;;
17363;SDS011;8799;43.594;13.526;2023-02-25T03:57:40;10.47;;;6.17;;
17363;SDS011;8799;43.594;13.526;2023-02-25T04:00:13;9.87;;;6.50;;
17363;SDS011;8799;43.594;13.526;2023-02-25T04:02:45;11.33;;;6.37;;
17363;SDS011;8799;43.594;13.526;2023-02-25T04:05:14;11.03;;;6.17;;
17363;SDS011;8799;43.594;13.526;2023-02-25T04:07:44;10.40;;;6.20;;
17363;SDS011;8799;43.594;13.526;2023-02-25T04:10:12;9.67;;;5.97;;
17363;SDS011;8799;43.594;13.526;2023-02-25T04:12:42;10.73;;;5.93;;
17363;SDS011;8799;43.594;13.526;2023-02-25T04:15:10;10.07;;;6.50;;
17363;SDS011;8799;43.594;13.526;2023-02-25T04:17:39;9.30;;;5.87;;
17363;SDS011;8799;43.594;13.526;2023-02-25T04:20:10;14.10;;;6.50;;
17363;SDS011;8799;43.594;13.526;2023-02-25T04:22:39;11.47;;;6.10;;
17363;SDS011;8799;43.594;13.526;2023-02-25T04:25:07;9.50;;;5.90;;
17363;SDS011;8799;43.594;13.526;2023-02-25T04:27:35;9.67;;;6.13;;
17363;SDS011;8799;43.594;13.526;2023-02-25T04:30:03;9.63;;;5.93;;
17363;SDS011;8799;43.594;13.526;2023-02-25T04:32:32;9.90;;;6.17;;
17363;SDS011;8799;43.594;13.526;2023-02-25T04:35:01;11.87;;;6.03;;
17363;SDS011;8799;43.594;13.526;2023-02-25T04:37:30;9.83;;;6.37;;
17363;SDS011;8799;43.594;13.526;2023-02-25T04:39:59;12.27;;;6.23;;
17363;SDS011;8799;43.594;13.526;2023-02-25T04:42:26;11.03;;;6.23;;
17363;SDS011;8799;43.594;13.526;2023-02-25T04:44:54;14.20;;;7.07;;
17363;SDS011;8799;43.594;13.526;2023-02-25T04:47:23;8.27;;;5.43;;
17363;SDS011;8799;43.594;13.526;2023-02-25T04:49:51;10.30;;;6.00;;
17363;SDS011;8799;43.594;13.526;2023-02-25T04:52:20;12.03;;;6.47;;
17363;SDS011;8799;43.594;13.526;2023-02-25T04:54:50;8.50;;;5.67;;
17363;SDS011;8799;43.594;13.526;2023-02-25T04:57:18;10.67;;;5.60;;
17363;SDS011;8799;43.594;13.526;2023-02-25T04:59:46;8.97;;;5.73;;
17363;SDS011;8799;43.594;13.526;2023-02-25T05:02:14;13.03;;;6.07;;
17363;SDS011;8799;43.594;13.526;2023-02-25T05:04:41;11.87;;;6.07;;
17363;SDS011;8799;43.594;13.526;2023-02-25T05:07:09;8.83;;;6.07;;
17363;SDS011;8799;43.594;13.526;2023-02-25T05:09:37;9.03;;;5.63;;
17363;SDS011;8799;43.594;13.526;2023-02-25T05:12:07;10.67;;;6.30;;
17363;SDS011;8799;43.594;13.526;2023-02-25T05:14:35;10.43;;;6.27;;
17363;SDS011;8799;43.594;13.526;2023-02-25T05:17:03;12.27;;;6.67;;
17363;SDS011;8799;43.594;13.526;2023-02-25T05:19:31;18.67;;;6.23;;
17363;SDS011;8799;43.594;13.526;2023-02-25T05:21:59;14.37;;;6.63;;
17363;SDS011;8799;43.594;13.526;2023-02-25T05:24:27;26.57;;;7.03;;
17363;SDS011;8799;43.594;13.526;2023-02-25T05:26:55;17.80;;;5.87;;
17363;SDS011;8799;43.594;13.526;2023-02-25T05:29:24;16.63;;;6.60;;
17363;SDS011;8799;43.594;13.526;2023-02-25T05:31:52;20.97;;;6.80;;
17363;SDS011;8799;43.594;13.526;2023-02-25T05:34:21;24.60;;;6.67;;
17363;SDS011;8799;43.594;13.526;2023-02-25T05:36:49;21.03;;;6.37;;
17363;SDS011;8799;43.594;13.526;2023-02-25T05:39:17;16.13;;;7.07;;
17363;SDS011;8799;43.594;13.526;2023-02-25T05:41:45;16.33;;;6.67;;
17363;SDS011;8799;43.594;13.526;2023-02-25T05:44:13;18.97;;;7.20;;
17363;SDS011;8799;43.594;13.526;2023-02-25T05:46:42;15.57;;;6.40;;
17363;SDS011;8799;43.594;13.526;2023-02-25T05:49:10;14.27;;;6.60;;
17363;SDS011;8799;43.594;13.526;2023-02-25T05:51:38;25.60;;;7.00;;
17363;SDS011;8799;43.594;13.526;2023-02-25T05:54:06;14.73;;;6.50;;
17363;SDS011;8799;43.594;13.526;2023-02-25T05:56:34;11.07;;;6.33;;
17363;SDS011;8799;43.594;13.526;2023-02-25T05:59:02;12.57;;;7.17;;
17363;SDS011;8799;43.594;13.526;2023-02-25T06:01:31;13.70;;;6.67;;
17363;SDS011;8799;43.594;13.526;2023-02-25T06:04:01;17.97;;;6.83;;
17363;SDS011;8799;43.594;13.526;2023-02-25T06:06:29;10.77;;;6.27;;
17363;SDS011;8799;43.594;13.526;2023-02-25T06:08:57;15.37;;;5.77;;
17363;SDS011;8799;43.594;13.526;2023-02-25T06:11:26;15.67;;;5.90;;
17363;SDS011;8799;43.594;13.526;2023-02-25T06:13:56;12.20;;;6.40;;
17363;SDS011;8799;43.594;13.526;2023-02-25T06:16:25;13.03;;;6.83;;
17363;SDS011;8799;43.594;13.526;2023-02-25T06:18:55;11.37;;;6.33;;
17363;SDS011;8799;43.594;13.526;2023-02-25T06:21:24;12.20;;;6.67;;
17363;SDS011;8799;43.594;13.526;2023-02-25T06:23:52;11.97;;;6.90;;
17363;SDS011;8799;43.594;13.526;2023-02-25T06:26:21;14.83;;;7.07;;
17363;SDS011;8799;43.594;13.526;2023-02-25T06:28:49;14.63;;;6.93;;
17363;SDS011;8799;43.594;13.526;2023-02-25T06:31:18;12.47;;;6.17;;
17363;SDS011;8799;43.594;13.526;2023-02-25T06:33:47;12.63;;;6.57;;
17363;SDS011;8799;43.594;13.526;2023-02-25T06:36:16;14.57;;;6.40;;
17363;SDS011;8799;43.594;13.526;2023-02-25T06:38:47;15.50;;;7.17;;
17363;SDS011;8799;43.594;13.526;2023-02-25T06:41:15;9.57;;;6.03;;
17363;SDS011;8799;43.594;13.526;2023-02-25T06:43:46;11.50;;;6.40;;
17363;SDS011;8799;43.594;13.526;2023-02-25T06:46:16;17.17;;;7.00;;
17363;SDS011;8799;43.594;13.526;2023-02-25T06:48:46;9.07;;;6.13;;
17363;SDS011;8799;43.594;13.526;2023-02-25T06:51:14;16.37;;;6.27;;
17363;SDS011;8799;43.594;13.526;2023-02-25T06:53:43;11.60;;;6.20;;
17363;SDS011;8799;43.594;13.526;2023-02-25T06:56:13;15.80;;;6.67;;
17363;SDS011;8799;43.594;13.526;2023-02-25T06:58:44;10.83;;;5.90;;
17363;SDS011;8799;43.594;13.526;2023-02-25T07:01:13;10.80;;;5.90;;
17363;SDS011;8799;43.594;13.526;2023-02-25T07:03:42;11.30;;;5.73;;
17363;SDS011;8799;43.594;13.526;2023-02-25T07:06:10;16.23;;;6.20;;
17363;SDS011;8799;43.594;13.526;2023-02-25T07:08:40;10.83;;;5.77;;
17363;SDS011;8799;43.594;13.526;2023-02-25T07:11:09;14.50;;;6.50;;
17363;SDS011;8799;43.594;13.526;2023-02-25T07:13:40;11.90;;;6.13;;
17363;SDS011;8799;43.594;13.526;2023-02-25T07:16:09;11.13;;;6.23;;
17363;SDS011;8799;43.594;13.526;2023-02-25T07:19:00;13.43;;;6.10;;
17363;SDS011;8799;43.594;13.526;2023-02-25T07:21:28;12.70;;;5.73;;
17363;SDS011;8799;43.594;13.526;2023-02-25T07:23:56;11.47;;;5.73;;
17363;SDS011;8799;43.594;13.526;2023-02-25T07:26:25;21.67;;;6.30;;
17363;SDS011;8799;43.594;13.526;2023-02-25T07:28:56;16.87;;;6.23;;
17363;SDS011;8799;43.594;13.526;2023-02-25T07:31:26;11.13;;;6.13;;
17363;SDS011;8799;43.594;13.526;2023-02-25T07:33:54;12.70;;;5.93;;
17363;SDS011;8799;43.594;13.526;2023-02-25T07:36:24;12.50;;;6.73;;
17363;SDS011;8799;43.594;13.526;2023-02-25T07:38:53;11.07;;;5.50;;
17363;SDS011;8799;43.594;13.526;2023-02-25T07:41:21;10.37;;;5.40;;
17363;SDS011;8799;43.594;13.526;2023-02-25T07:43:48;9.87;;;5.60;;
17363;SDS011;8799;43.594;13.526;2023-02-25T07:46:18;11.73;;;6.13;;
17363;SDS011;8799;43.594;13.526;2023-02-25T07:48:46;11.63;;;5.40;;
17363;SDS011;8799;43.594;13.526;2023-02-25T07:51:15;16.17;;;6.40;;
17363;SDS011;8799;43.594;13.526;2023-02-25T07:53:45;12.53;;;6.00;;
17363;SDS011;8799;43.594;13.526;2023-02-25T07:56:15;24.03;;;5.77;;
17363;SDS011;8799;43.594;13.526;2023-02-25T07:58:44;17.43;;;5.20;;
17363;SDS011;8799;43.594;13.526;2023-02-25T08:01:16;14.70;;;5.03;;
17363;SDS011;8799;43.594;13.526;2023-02-25T08:03:50;7.80;;;5.13;;
17363;SDS011;8799;43.594;13.526;2023-02-25T08:06:19;15.33;;;4.97;;
17363;SDS011;8799;43.594;13.526;2023-02-25T08:08:47;13.40;;;5.57;;
17363;SDS011;8799;43.594;13.526;2023-02-25T08:11:16;8.30;;;5.13;;
17363;SDS011;8799;43.594;13.526;2023-02-25T08:13:45;12.97;;;5.23;;
17363;SDS011;8799;43.594;13.526;2023-02-25T08:16:14;11.30;;;5.33;;
17363;SDS011;8799;43.594;13.526;2023-02-25T08:18:45;7.63;;;4.33;;
17363;SDS011;8799;43.594;13.526;2023-02-25T08:21:14;9.93;;;4.97;;
17363;SDS011;8799;43.594;13.526;2023-02-25T08:23:43;7.80;;;4.57;;
17363;SDS011;8799;43.594;13.526;2023-02-25T08:26:11;10.77;;;4.77;;
17363;SDS011;8799;43.594;13.526;2023-02-25T08:28:41;20.03;;;4.80;;
17363;SDS011;8799;43.594;13.526;2023-02-25T08:31:10;8.33;;;4.57;;
17363;SDS011;8799;43.594;13.526;2023-02-25T08:33:38;18.20;;;4.20;;
17363;SDS011;8799;43.594;13.526;2023-02-25T08:36:10;7.67;;;4.23;;
17363;SDS011;8799;43.594;13.526;2023-02-25T08:38:40;8.43;;;3.87;;
17363;SDS011;8799;43.594;13.526;2023-02-25T08:41:08;11.37;;;4.10;;
17363;SDS011;8799;43.594;13.526;2023-02-25T08:43:36;10.73;;;4.30;;
17363;SDS011;8799;43.594;13.526;2023-02-25T08:46:05;11.60;;;4.37;;
17363;SDS011;8799;43.594;13.526;2023-02-25T08:48:33;13.97;;;4.90;;
17363;SDS011;8799;43.594;13.526;2023-02-25T08:51:01;11.23;;;4.43;;
17363;SDS011;8799;43.594;13.526;2023-02-25T08:53:34;8.57;;;3.90;;
17363;SDS011;8799;43.594;13.526;2023-02-25T08:56:03;11.80;;;5.17;;
17363;SDS011;8799;43.594;13.526;2023-02-25T08:58:31;7.77;;;4.17;;
17363;SDS011;8799;43.594;13.526;2023-02-25T09:00:59;8.17;;;4.40;;
17363;SDS011;8799;43.594;13.526;2023-02-25T09:03:27;12.53;;;4.50;;
17363;SDS011;8799;43.594;13.526;2023-02-25T09:05:55;8.77;;;4.07;;
17363;SDS011;8799;43.594;13.526;2023-02-25T09:08:23;11.10;;;4.37;;
17363;SDS011;8799;43.594;13.526;2023-02-25T09:10:53;9.63;;;4.50;;
17363;SDS011;8799;43.594;13.526;2023-02-25T09:13:21;9.17;;;4.60;;
17363;SDS011;8799;43.594;13.526;2023-02-25T09:15:54;16.03;;;5.13;;
17363;SDS011;8799;43.594;13.526;2023-02-25T09:18:22;11.70;;;5.10;;
17363;SDS011;8799;43.594;13.526;2023-02-25T09:20:50;12.43;;;4.77;;
17363;SDS011;8799;43.594;13.526;2023-02-25T09:23:18;10.30;;;4.20;;
17363;SDS011;8799;43.594;13.526;2023-02-25T09:25:46;10.73;;;4.87;;
17363;SDS011;8799;43.594;13.526;2023-02-25T09:28:15;8.87;;;4.23;;
17363;SDS011;8799;43.594;13.526;2023-02-25T09:30:44;9.13;;;4.10;;
17363;SDS011;8799;43.594;13.526;2023-02-25T09:33:12;11.70;;;4.77;;
17363;SDS011;8799;43.594;13.526;2023-02-25T09:35:40;8.00;;;4.30;;
17363;SDS011;8799;43.594;13.526;2023-02-25T09:38:08;8.67;;;4.30;;
17363;SDS011;8799;43.594;13.526;2023-02-25T09:40:36;11.40;;;4.67;;
17363;SDS011;8799;43.594;13.526;2023-02-25T09:43:06;10.60;;;4.20;;
17363;SDS011;8799;43.594;13.526;2023-02-25T09:45:47;13.33;;;4.70;;
17363;SDS011;8799;43.594;13.526;2023-02-25T09:48:19;7.80;;;4.13;;
17363;SDS011;8799;43.594;13.526;2023-02-25T09:50:52;14.20;;;4.90;;
17363;SDS011;8799;43.594;13.526;2023-02-25T09:53:24;8.60;;;3.80;;
17363;SDS011;8799;43.594;13.526;2023-02-25T09:55:57;11.13;;;4.00;;
17363;SDS011;8799;43.594;13.526;2023-02-25T09:58:29;6.30;;;4.33;;
17363;SDS011;8799;43.594;13.526;2023-02-25T10:01:02;11.37;;;4.07;;
17363;SDS011;8799;43.594;13.526;2023-02-25T10:03:41;6.47;;;4.20;;
17363;SDS011;8799;43.594;13.526;2023-02-25T10:06:16;7.70;;;4.20;;
17363;SDS011;8799;43.594;13.526;2023-02-25T10:08:53;9.07;;;4.30;;
17363;SDS011;8799;43.594;13.526;2023-02-25T10:11:34;7.90;;;4.00;;
17363;SDS011;8799;43.594;13.526;2023-02-25T10:14:13;7.47;;;4.13;;
17363;SDS011;8799;43.594;13.526;2023-02-25T10:16:53;8.47;;;4.17;;
17363;SDS011;8799;43.594;13.526;2023-02-25T10:19:34;11.20;;;4.33;;
17363;SDS011;8799;43.594;13.526;2023-02-25T10:22:25;9.03;;;4.30;;
17363;SDS011;8799;43.594;13.526;2023-02-25T10:25:16;7.23;;;4.23;;
17363;SDS011;8799;43.594;13.526;2023-02-25T10:27:49;6.90;;;4.10;;
17363;SDS011;8799;43.594;13.526;2023-02-25T10:30:21;7.83;;;3.83;;
17363;SDS011;8799;43.594;13.526;2023-02-25T10:32:54;8.37;;;4.17;;
17363;SDS011;8799;43.594;13.526;2023-02-25T10:35:24;8.13;;;4.33;;
17363;SDS011;8799;43.594;13.526;2023-02-25T10:37:53;6.73;;;4.07;;
17363;SDS011;8799;43.594;13.526;2023-02-25T10:40:23;11.00;;;4.37;;
17363;SDS011;8799;43.594;13.526;2023-02-25T10:42:55;12.50;;;4.43;;
17363;SDS011;8799;43.594;13.526;2023-02-25T10:45:45;11.57;;;4.07;;
17363;SDS011;8799;43.594;13.526;2023-02-25T10:48:22;9.90;;;3.90;;
17363;SDS011;8799;43.594;13.526;2023-02-25T10:51:00;9.17;;;4.20;;
17363;SDS011;8799;43.594;13.526;2023-02-25T10:53:32;11.17;;;4.60;;
17363;SDS011;8799;43.594;13.526;2023-02-25T10:56:00;8.83;;;4.40;;
17363;SDS011;8799;43.594;13.526;2023-02-25T10:58:34;12.87;;;4.73;;
17363;SDS011;8799;43.594;13.526;2023-02-25T11:01:11;8.60;;;4.30;;
17363;SDS011;8799;43.594;13.526;2023-02-25T11:03:50;7.97;;;4.13;;
17363;SDS011;8799;43.594;13.526;2023-02-25T11:06:23;10.37;;;4.40;;
17363;SDS011;8799;43.594;13.526;2023-02-25T11:08:53;11.63;;;3.73;;
17363;SDS011;8799;43.594;13.526;2023-02-25T11:11:23;12.17;;;4.83;;
17363;SDS011;8799;43.594;13.526;2023-02-25T11:13:53;7.13;;;4.07;;
17363;SDS011;8799;43.594;13.526;2023-02-25T11:16:26;9.93;;;4.70;;
17363;SDS011;8799;43.594;13.526;2023-02-25T11:18:57;16.20;;;4.30;;
17363;SDS011;8799;43.594;13.526;2023-02-25T11:21:29;9.90;;;4.73;;
17363;SDS011;8799;43.594;13.526;2023-02-25T11:24:00;10.20;;;4.60;;
17363;SDS011;8799;43.594;13.526;2023-02-25T11:26:31;8.27;;;4.57;;
17363;SDS011;8799;43.594;13.526;2023-02-25T11:29:03;9.43;;;4.20;;
17363;SDS011;8799;43.594;13.526;2023-02-25T11:31:35;9.03;;;4.30;;
17363;SDS011;8799;43.594;13.526;2023-02-25T11:34:12;8.40;;;5.00;;
17363;SDS011;8799;43.594;13.526;2023-02-25T11:36:45;11.17;;;5.23;;
17363;SDS011;8799;43.594;13.526;2023-02-25T11:39:14;10.33;;;4.47;;
17363;SDS011;8799;43.594;13.526;2023-02-25T11:41:43;8.03;;;4.30;;
17363;SDS011;8799;43.594;13.526;2023-02-25T11:44:18;8.30;;;4.53;;
17363;SDS011;8799;43.594;13.526;2023-02-25T11:46:56;8.40;;;4.33;;
17363;SDS011;8799;43.594;13.526;2023-02-25T11:49:36;10.20;;;5.07;;
17363;SDS011;8799;43.594;13.526;2023-02-25T11:52:31;11.50;;;4.77;;
17363;SDS011;8799;43.594;13.526;2023-02-25T11:55:08;10.87;;;4.63;;
17363;SDS011;8799;43.594;13.526;2023-02-25T11:58:00;11.20;;;4.77;;
17363;SDS011;8799;43.594;13.526;2023-02-25T12:00:37;7.43;;;4.67;;
17363;SDS011;8799;43.594;13.526;2023-02-25T12:03:18;10.97;;;4.60;;
17363;SDS011;8799;43.594;13.526;2023-02-25T12:06:22;9.60;;;4.07;;
17363;SDS011;8799;43.594;13.526;2023-02-25T12:12:14;8.53;;;4.77;;
17363;SDS011;8799;43.594;13.526;2023-02-25T12:15:17;11.17;;;4.97;;
17363;SDS011;8799;43.594;13.526;2023-02-25T12:33:30;7.70;;;4.30;;
17363;SDS011;8799;43.594;13.526;2023-02-25T12:36:23;9.97;;;5.10;;
17363;SDS011;8799;43.594;13.526;2023-02-25T12:42:27;9.00;;;4.80;;
17363;SDS011;8799;43.594;13.526;2023-02-25T12:45:20;8.67;;;4.73;;
17363;SDS011;8799;43.594;13.526;2023-02-25T12:51:21;9.40;;;4.50;;
17363;SDS011;8799;43.594;13.526;2023-02-25T12:54:07;8.13;;;4.67;;
17363;SDS011;8799;43.594;13.526;2023-02-25T12:59:49;9.27;;;5.17;;
17363;SDS011;8799;43.594;13.526;2023-02-25T13:02:35;10.00;;;4.83;;
17363;SDS011;8799;43.594;13.526;2023-02-25T13:05:20;8.57;;;4.83;;
17363;SDS011;8799;43.594;13.526;2023-02-25T13:08:13;11.10;;;4.77;;
17363;SDS011;8799;43.594;13.526;2023-02-25T13:10:55;8.13;;;4.60;;
17363;SDS011;8799;43.594;13.526;2023-02-25T13:16:33;8.40;;;4.53;;
17363;SDS011;8799;43.594;13.526;2023-02-25T13:19:15;14.00;;;4.90;;
17363;SDS011;8799;43.594;13.526;2023-02-25T13:22:06;9.20;;;4.87;;
17363;SDS011;8799;43.594;13.526;2023-02-25T13:24:47;9.17;;;4.80;;
17363;SDS011;8799;43.594;13.526;2023-02-25T13:30:40;10.17;;;5.30;;
17363;SDS011;8799;43.594;13.526;2023-02-25T13:33:20;8.83;;;4.90;;
17363;SDS011;8799;43.594;13.526;2023-02-25T13:36:22;7.97;;;4.73;;
17363;SDS011;8799;43.594;13.526;2023-02-25T13:42:17;12.07;;;6.23;;
17363;SDS011;8799;43.594;13.526;2023-02-25T13:45:26;15.30;;;7.30;;
17363;SDS011;8799;43.594;13.526;2023-02-25T13:48:02;12.60;;;5.77;;
17363;SDS011;8799;43.594;13.526;2023-02-25T13:50:51;13.43;;;5.47;;
17363;SDS011;8799;43.594;13.526;2023-02-25T13:53:40;13.90;;;6.37;;
17363;SDS011;8799;43.594;13.526;2023-02-25T13:56:33;14.93;;;5.67;;
17363;SDS011;8799;43.594;13.526;2023-02-25T13:59:23;12.67;;;5.60;;
17363;SDS011;8799;43.594;13.526;2023-02-25T14:02:04;11.60;;;6.47;;
17363;SDS011;8799;43.594;13.526;2023-02-25T14:04:57;12.37;;;6.03;;
17363;SDS011;8799;43.594;13.526;2023-02-25T14:07:46;9.97;;;4.97;;
17363;SDS011;8799;43.594;13.526;2023-02-25T14:10:32;12.80;;;6.07;;
17363;SDS011;8799;43.594;13.526;2023-02-25T14:13:19;9.73;;;5.73;;
17363;SDS011;8799;43.594;13.526;2023-02-25T14:16:14;11.03;;;5.80;;
17363;SDS011;8799;43.594;13.526;2023-02-25T14:19:06;13.50;;;5.90;;
17363;SDS011;8799;43.594;13.526;2023-02-25T14:21:52;12.17;;;5.37;;
17363;SDS011;8799;43.594;13.526;2023-02-25T14:24:38;9.97;;;5.47;;
17363;SDS011;8799;43.594;13.526;2023-02-25T14:27:15;11.43;;;5.90;;
17363;SDS011;8799;43.594;13.526;2023-02-25T14:29:56;11.60;;;5.47;;
17363;SDS011;8799;43.594;13.526;2023-02-25T14:32:42;10.33;;;6.10;;
17363;SDS011;8799;43.594;13.526;2023-02-25T14:35:29;11.30;;;5.97;;
17363;SDS011;8799;43.594;13.526;2023-02-25T14:38:12;10.80;;;5.37;;
17363;SDS011;8799;43.594;13.526;2023-02-25T14:40:42;12.20;;;6.67;;
17363;SDS011;8799;43.594;13.526;2023-02-25T14:43:23;10.77;;;6.07;;
17363;SDS011;8799;43.594;13.526;2023-02-25T14:45:55;8.23;;;5.50;;
17363;SDS011;8799;43.594;13.526;2023-02-25T14:48:33;12.60;;;5.37;;
17363;SDS011;8799;43.594;13.526;2023-02-25T14:51:18;15.70;;;6.00;;
17363;SDS011;8799;43.594;13.526;2023-02-25T14:54:13;11.97;;;5.70;;
17363;SDS011;8799;43.594;13.526;2023-02-25T15:00:13;18.83;;;5.57;;
17363;SDS011;8799;43.594;13.526;2023-02-25T15:03:19;11.27;;;5.60;;
17363;SDS011;8799;43.594;13.526;2023-02-25T15:06:08;11.30;;;4.93;;
17363;SDS011;8799;43.594;13.526;2023-02-25T15:09:09;9.80;;;5.13;;
17363;SDS011;8799;43.594;13.526;2023-02-25T15:12:10;11.63;;;5.40;;
17363;SDS011;8799;43.594;13.526;2023-02-25T15:21:37;9.10;;;5.40;;
17363;SDS011;8799;43.594;13.526;2023-02-25T15:24:09;12.43;;;5.43;;
17363;SDS011;8799;43.594;13.526;2023-02-25T15:26:58;12.23;;;5.43;;
17363;SDS011;8799;43.594;13.526;2023-02-25T15:32:22;11.77;;;5.80;;
17363;SDS011;8799;43.594;13.526;2023-02-25T15:34:53;11.87;;;5.77;;
17363;SDS011;8799;43.594;13.526;2023-02-25T15:37:29;15.13;;;5.37;;
17363;SDS011;8799;43.594;13.526;2023-02-25T15:40:00;7.80;;;5.00;;
17363;SDS011;8799;43.594;13.526;2023-02-25T15:42:52;10.77;;;5.27;;
17363;SDS011;8799;43.594;13.526;2023-02-25T15:45:34;13.40;;;6.03;;
17363;SDS011;8799;43.594;13.526;2023-02-25T15:51:02;11.43;;;5.50;;
17363;SDS011;8799;43.594;13.526;2023-02-25T15:53:36;12.80;;;5.00;;
17363;SDS011;8799;43.594;13.526;2023-02-25T15:56:22;8.57;;;4.93;;
17363;SDS011;8799;43.594;13.526;2023-02-25T15:58:54;10.53;;;5.97;;
17363;SDS011;8799;43.594;13.526;2023-02-25T16:01:29;11.33;;;5.60;;
17363;SDS011;8799;43.594;13.526;2023-02-25T16:04:23;14.93;;;6.70;;
17363;SDS011;8799;43.594;13.526;2023-02-25T16:07:14;12.03;;;5.87;;
17363;SDS011;8799;43.594;13.526;2023-02-25T16:09:47;18.00;;;6.87;;
17363;SDS011;8799;43.594;13.526;2023-02-25T16:12:19;15.67;;;6.70;;
17363;SDS011;8799;43.594;13.526;2023-02-25T16:14:47;18.53;;;7.97;;